sensor_id;sensor_type;location;lat;lon;timestamp;P1;durP1;ratioP1;P2;durP2;ratioP2
55784;SDS011;41709;52.536;5.688;2023-04-15T00:01:28;8.98;;;4.15;;
55784;SDS011;41709;52.536;5.688;2023-04-15T00:03:54;11.35;;;4.15;;
55784;SDS011;41709;52.536;5.688;2023-04-15T00:06:20;8.43;;;4.07;;
55784;SDS011;41709;52.536;5.688;2023-04-15T00:08:47;6.55;;;3.78;;
55784;SDS011;41709;52.536;5.688;2023-04-15T00:11:13;7.18;;;3.75;;
55784;SDS011;41709;52.536;5.688;2023-04-15T00:13:39;8.27;;;3.80;;
55784;SDS011;41709;52.536;5.688;2023-04-15T00:16:05;9.55;;;3.85;;
55784;SDS011;41709;52.536;5.688;2023-04-15T00:18:32;5.55;;;4.00;;
55784;SDS011;41709;52.536;5.688;2023-04-15T00:20:58;4.88;;;3.03;;
55784;SDS011;41709;52.536;5.688;2023-04-15T00:23:23;6.82;;;3.38;;
55784;SDS011;41709;52.536;5.688;2023-04-15T00:25:49;8.40;;;4.30;;
55784;SDS011;41709;52.536;5.688;2023-04-15T00:28:15;7.80;;;3.80;;
55784;SDS011;41709;52.536;5.688;2023-04-15T00:30:41;8.77;;;3.92;;
55784;SDS011;41709;52.536;5.688;2023-04-15T00:33:07;4.60;;;3.72;;
55784;SDS011;41709;52.536;5.688;2023-04-15T00:35:32;6.47;;;3.63;;
55784;SDS011;41709;52.536;5.688;2023-04-15T00:37:58;7.10;;;3.97;;
55784;SDS011;41709;52.536;5.688;2023-04-15T00:40:24;6.28;;;4.05;;
55784;SDS011;41709;52.536;5.688;2023-04-15T00:42:50;6.97;;;3.90;;
55784;SDS011;41709;52.536;5.688;2023-04-15T00:45:16;4.90;;;3.55;;
55784;SDS011;41709;52.536;5.688;2023-04-15T00:47:42;8.60;;;4.00;;
55784;SDS011;41709;52.536;5.688;2023-04-15T00:50:09;7.85;;;4.07;;
55784;SDS011;41709;52.536;5.688;2023-04-15T00:52:36;7.38;;;3.42;;
55784;SDS011;41709;52.536;5.688;2023-04-15T00:55:02;6.22;;;3.70;;
55784;SDS011;41709;52.536;5.688;2023-04-15T00:57:28;7.00;;;4.70;;
55784;SDS011;41709;52.536;5.688;2023-04-15T00:59:54;7.78;;;3.60;;
55784;SDS011;41709;52.536;5.688;2023-04-15T01:02:20;8.35;;;3.60;;
55784;SDS011;41709;52.536;5.688;2023-04-15T01:04:47;8.07;;;3.90;;
55784;SDS011;41709;52.536;5.688;2023-04-15T01:07:13;7.22;;;3.95;;
55784;SDS011;41709;52.536;5.688;2023-04-15T01:09:38;7.22;;;3.72;;
55784;SDS011;41709;52.536;5.688;2023-04-15T01:12:05;6.25;;;3.63;;
55784;SDS011;41709;52.536;5.688;2023-04-15T01:14:32;6.03;;;3.47;;
55784;SDS011;41709;52.536;5.688;2023-04-15T01:16:58;8.02;;;3.80;;
55784;SDS011;41709;52.536;5.688;2023-04-15T01:19:23;7.60;;;3.72;;
55784;SDS011;41709;52.536;5.688;2023-04-15T01:21:49;8.00;;;3.95;;
55784;SDS011;41709;52.536;5.688;2023-04-15T01:24:14;5.80;;;3.80;;
55784;SDS011;41709;52.536;5.688;2023-04-15T01:26:42;6.53;;;3.80;;
55784;SDS011;41709;52.536;5.688;2023-04-15T01:29:09;8.65;;;3.88;;
55784;SDS011;41709;52.536;5.688;2023-04-15T01:31:34;9.85;;;4.00;;
55784;SDS011;41709;52.536;5.688;2023-04-15T01:34:00;5.13;;;3.67;;
55784;SDS011;41709;52.536;5.688;2023-04-15T01:36:26;5.45;;;4.10;;
55784;SDS011;41709;52.536;5.688;2023-04-15T01:38:52;7.30;;;4.20;;
55784;SDS011;41709;52.536;5.688;2023-04-15T01:41:24;5.13;;;3.40;;
55784;SDS011;41709;52.536;5.688;2023-04-15T01:43:50;6.45;;;4.10;;
55784;SDS011;41709;52.536;5.688;2023-04-15T01:46:16;7.03;;;4.20;;
55784;SDS011;41709;52.536;5.688;2023-04-15T01:48:42;6.55;;;3.80;;
55784;SDS011;41709;52.536;5.688;2023-04-15T01:51:07;7.60;;;4.82;;
55784;SDS011;41709;52.536;5.688;2023-04-15T01:53:33;7.55;;;4.00;;
55784;SDS011;41709;52.536;5.688;2023-04-15T01:55:58;9.13;;;4.40;;
55784;SDS011;41709;52.536;5.688;2023-04-15T01:58:24;8.50;;;4.63;;
55784;SDS011;41709;52.536;5.688;2023-04-15T02:00:50;7.68;;;3.67;;
55784;SDS011;41709;52.536;5.688;2023-04-15T02:03:15;11.23;;;4.43;;
55784;SDS011;41709;52.536;5.688;2023-04-15T02:05:41;6.43;;;4.50;;
55784;SDS011;41709;52.536;5.688;2023-04-15T02:08:07;9.20;;;4.55;;
55784;SDS011;41709;52.536;5.688;2023-04-15T02:10:33;7.53;;;3.90;;
55784;SDS011;41709;52.536;5.688;2023-04-15T02:12:59;7.43;;;5.00;;
55784;SDS011;41709;52.536;5.688;2023-04-15T02:15:25;7.20;;;4.70;;
55784;SDS011;41709;52.536;5.688;2023-04-15T02:17:50;10.10;;;4.75;;
55784;SDS011;41709;52.536;5.688;2023-04-15T02:20:19;8.45;;;4.63;;
55784;SDS011;41709;52.536;5.688;2023-04-15T02:22:45;8.48;;;4.95;;
55784;SDS011;41709;52.536;5.688;2023-04-15T02:25:12;9.95;;;4.53;;
55784;SDS011;41709;52.536;5.688;2023-04-15T02:27:38;10.20;;;5.30;;
55784;SDS011;41709;52.536;5.688;2023-04-15T02:30:04;7.60;;;5.10;;
55784;SDS011;41709;52.536;5.688;2023-04-15T02:32:33;6.57;;;5.05;;
55784;SDS011;41709;52.536;5.688;2023-04-15T02:35:05;10.18;;;5.40;;
55784;SDS011;41709;52.536;5.688;2023-04-15T02:37:34;9.05;;;5.25;;
55784;SDS011;41709;52.536;5.688;2023-04-15T02:40:05;7.88;;;5.13;;
55784;SDS011;41709;52.536;5.688;2023-04-15T02:42:40;9.57;;;5.35;;
55784;SDS011;41709;52.536;5.688;2023-04-15T02:45:06;10.10;;;6.00;;
55784;SDS011;41709;52.536;5.688;2023-04-15T02:47:33;8.10;;;5.85;;
55784;SDS011;41709;52.536;5.688;2023-04-15T02:49:59;11.70;;;5.93;;
55784;SDS011;41709;52.536;5.688;2023-04-15T02:52:28;9.32;;;6.63;;
55784;SDS011;41709;52.536;5.688;2023-04-15T02:54:54;12.02;;;5.82;;
55784;SDS011;41709;52.536;5.688;2023-04-15T02:57:24;10.07;;;6.30;;
55784;SDS011;41709;52.536;5.688;2023-04-15T02:59:53;11.27;;;6.07;;
55784;SDS011;41709;52.536;5.688;2023-04-15T03:02:19;17.83;;;7.95;;
55784;SDS011;41709;52.536;5.688;2023-04-15T03:04:44;12.65;;;6.68;;
55784;SDS011;41709;52.536;5.688;2023-04-15T03:07:10;9.85;;;6.28;;
55784;SDS011;41709;52.536;5.688;2023-04-15T03:09:35;12.70;;;6.35;;
55784;SDS011;41709;52.536;5.688;2023-04-15T03:12:03;9.95;;;6.57;;
55784;SDS011;41709;52.536;5.688;2023-04-15T03:14:29;9.85;;;6.80;;
55784;SDS011;41709;52.536;5.688;2023-04-15T03:16:54;12.77;;;7.60;;
55784;SDS011;41709;52.536;5.688;2023-04-15T03:19:20;10.77;;;6.72;;
55784;SDS011;41709;52.536;5.688;2023-04-15T03:21:46;12.20;;;6.82;;
55784;SDS011;41709;52.536;5.688;2023-04-15T03:24:11;18.50;;;9.30;;
55784;SDS011;41709;52.536;5.688;2023-04-15T03:26:37;11.77;;;7.28;;
55784;SDS011;41709;52.536;5.688;2023-04-15T03:29:02;9.85;;;6.18;;
55784;SDS011;41709;52.536;5.688;2023-04-15T03:31:28;12.80;;;6.55;;
55784;SDS011;41709;52.536;5.688;2023-04-15T03:33:53;16.00;;;7.72;;
55784;SDS011;41709;52.536;5.688;2023-04-15T03:36:19;12.80;;;7.38;;
55784;SDS011;41709;52.536;5.688;2023-04-15T03:38:45;13.98;;;8.18;;
55784;SDS011;41709;52.536;5.688;2023-04-15T03:41:10;12.00;;;7.20;;
55784;SDS011;41709;52.536;5.688;2023-04-15T03:43:36;10.25;;;7.03;;
55784;SDS011;41709;52.536;5.688;2023-04-15T03:46:01;11.00;;;6.50;;
55784;SDS011;41709;52.536;5.688;2023-04-15T03:48:27;11.15;;;7.60;;
55784;SDS011;41709;52.536;5.688;2023-04-15T03:50:53;14.38;;;7.20;;
55784;SDS011;41709;52.536;5.688;2023-04-15T03:53:19;10.20;;;7.15;;
55784;SDS011;41709;52.536;5.688;2023-04-15T03:55:45;17.15;;;8.07;;
55784;SDS011;41709;52.536;5.688;2023-04-15T03:58:11;12.25;;;7.50;;
55784;SDS011;41709;52.536;5.688;2023-04-15T04:00:37;11.65;;;7.25;;
55784;SDS011;41709;52.536;5.688;2023-04-15T04:03:03;11.30;;;7.72;;
55784;SDS011;41709;52.536;5.688;2023-04-15T04:05:29;13.77;;;8.13;;
55784;SDS011;41709;52.536;5.688;2023-04-15T04:07:54;11.88;;;7.40;;
55784;SDS011;41709;52.536;5.688;2023-04-15T04:10:20;14.18;;;7.60;;
55784;SDS011;41709;52.536;5.688;2023-04-15T04:12:46;13.02;;;7.75;;
55784;SDS011;41709;52.536;5.688;2023-04-15T04:15:11;15.45;;;7.82;;
55784;SDS011;41709;52.536;5.688;2023-04-15T04:17:37;14.30;;;7.88;;
55784;SDS011;41709;52.536;5.688;2023-04-15T04:20:02;12.65;;;7.22;;
55784;SDS011;41709;52.536;5.688;2023-04-15T04:22:29;9.90;;;7.50;;
55784;SDS011;41709;52.536;5.688;2023-04-15T04:24:55;10.27;;;7.05;;
55784;SDS011;41709;52.536;5.688;2023-04-15T04:27:21;13.68;;;7.80;;
55784;SDS011;41709;52.536;5.688;2023-04-15T04:29:46;11.20;;;7.72;;
55784;SDS011;41709;52.536;5.688;2023-04-15T04:32:13;15.32;;;8.65;;
55784;SDS011;41709;52.536;5.688;2023-04-15T04:34:39;14.70;;;8.25;;
55784;SDS011;41709;52.536;5.688;2023-04-15T04:37:05;14.35;;;8.60;;
55784;SDS011;41709;52.536;5.688;2023-04-15T04:39:31;10.32;;;7.28;;
55784;SDS011;41709;52.536;5.688;2023-04-15T04:41:56;13.07;;;8.32;;
55784;SDS011;41709;52.536;5.688;2023-04-15T04:44:22;14.07;;;8.48;;
55784;SDS011;41709;52.536;5.688;2023-04-15T04:46:47;11.30;;;7.07;;
55784;SDS011;41709;52.536;5.688;2023-04-15T04:49:13;11.95;;;8.13;;
55784;SDS011;41709;52.536;5.688;2023-04-15T04:51:38;10.95;;;7.80;;
55784;SDS011;41709;52.536;5.688;2023-04-15T04:54:04;10.07;;;7.75;;
55784;SDS011;41709;52.536;5.688;2023-04-15T04:56:29;10.15;;;6.97;;
55784;SDS011;41709;52.536;5.688;2023-04-15T04:58:55;11.75;;;8.07;;
55784;SDS011;41709;52.536;5.688;2023-04-15T05:01:21;11.73;;;7.97;;
55784;SDS011;41709;52.536;5.688;2023-04-15T05:03:46;10.57;;;6.88;;
55784;SDS011;41709;52.536;5.688;2023-04-15T05:06:12;12.85;;;8.32;;
55784;SDS011;41709;52.536;5.688;2023-04-15T05:08:37;12.80;;;7.80;;
55784;SDS011;41709;52.536;5.688;2023-04-15T05:11:04;15.93;;;7.95;;
55784;SDS011;41709;52.536;5.688;2023-04-15T05:13:30;10.73;;;7.47;;
55784;SDS011;41709;52.536;5.688;2023-04-15T05:15:55;13.07;;;8.07;;
55784;SDS011;41709;52.536;5.688;2023-04-15T05:18:21;13.60;;;7.55;;
55784;SDS011;41709;52.536;5.688;2023-04-15T05:20:46;16.20;;;8.32;;
55784;SDS011;41709;52.536;5.688;2023-04-15T05:23:14;14.48;;;8.38;;
55784;SDS011;41709;52.536;5.688;2023-04-15T05:25:39;13.93;;;8.10;;
55784;SDS011;41709;52.536;5.688;2023-04-15T05:28:05;11.65;;;9.07;;
55784;SDS011;41709;52.536;5.688;2023-04-15T05:30:30;15.55;;;8.10;;
55784;SDS011;41709;52.536;5.688;2023-04-15T05:32:56;10.77;;;7.68;;
55784;SDS011;41709;52.536;5.688;2023-04-15T05:35:22;13.75;;;8.43;;
55784;SDS011;41709;52.536;5.688;2023-04-15T05:37:47;13.40;;;8.43;;
55784;SDS011;41709;52.536;5.688;2023-04-15T05:40:13;11.32;;;8.35;;
55784;SDS011;41709;52.536;5.688;2023-04-15T05:42:39;13.52;;;8.85;;
55784;SDS011;41709;52.536;5.688;2023-04-15T05:45:05;12.70;;;8.68;;
55784;SDS011;41709;52.536;5.688;2023-04-15T05:47:33;15.48;;;9.25;;
55784;SDS011;41709;52.536;5.688;2023-04-15T05:49:59;15.07;;;8.70;;
55784;SDS011;41709;52.536;5.688;2023-04-15T05:52:25;13.45;;;9.10;;
55784;SDS011;41709;52.536;5.688;2023-04-15T05:54:51;19.95;;;9.80;;
55784;SDS011;41709;52.536;5.688;2023-04-15T05:57:16;16.20;;;9.35;;
55784;SDS011;41709;52.536;5.688;2023-04-15T05:59:42;14.50;;;9.85;;
55784;SDS011;41709;52.536;5.688;2023-04-15T06:02:08;14.30;;;9.88;;
55784;SDS011;41709;52.536;5.688;2023-04-15T06:04:34;16.08;;;10.23;;
55784;SDS011;41709;52.536;5.688;2023-04-15T06:07:00;15.55;;;10.30;;
55784;SDS011;41709;52.536;5.688;2023-04-15T06:09:26;17.23;;;10.65;;
55784;SDS011;41709;52.536;5.688;2023-04-15T06:11:53;15.38;;;10.20;;
55784;SDS011;41709;52.536;5.688;2023-04-15T06:14:18;12.93;;;9.60;;
55784;SDS011;41709;52.536;5.688;2023-04-15T06:16:44;14.43;;;9.43;;
55784;SDS011;41709;52.536;5.688;2023-04-15T06:19:10;18.75;;;10.32;;
55784;SDS011;41709;52.536;5.688;2023-04-15T06:21:36;16.42;;;10.48;;
55784;SDS011;41709;52.536;5.688;2023-04-15T06:24:02;14.23;;;9.50;;
55784;SDS011;41709;52.536;5.688;2023-04-15T06:26:27;18.83;;;10.30;;
55784;SDS011;41709;52.536;5.688;2023-04-15T06:28:53;13.50;;;10.13;;
55784;SDS011;41709;52.536;5.688;2023-04-15T06:31:19;12.98;;;8.77;;
55784;SDS011;41709;52.536;5.688;2023-04-15T06:33:45;14.32;;;8.85;;
55784;SDS011;41709;52.536;5.688;2023-04-15T06:36:10;14.82;;;9.07;;
55784;SDS011;41709;52.536;5.688;2023-04-15T06:38:36;14.20;;;9.02;;
55784;SDS011;41709;52.536;5.688;2023-04-15T06:41:02;14.27;;;9.48;;
55784;SDS011;41709;52.536;5.688;2023-04-15T06:43:28;13.77;;;9.38;;
55784;SDS011;41709;52.536;5.688;2023-04-15T06:45:54;15.35;;;9.60;;
55784;SDS011;41709;52.536;5.688;2023-04-15T06:48:20;12.30;;;8.65;;
55784;SDS011;41709;52.536;5.688;2023-04-15T06:50:46;14.18;;;9.02;;
55784;SDS011;41709;52.536;5.688;2023-04-15T06:53:12;11.63;;;7.75;;
55784;SDS011;41709;52.536;5.688;2023-04-15T06:55:38;15.35;;;8.35;;
55784;SDS011;41709;52.536;5.688;2023-04-15T06:58:04;13.30;;;8.55;;
55784;SDS011;41709;52.536;5.688;2023-04-15T07:00:29;14.20;;;9.05;;
55784;SDS011;41709;52.536;5.688;2023-04-15T07:02:56;11.30;;;7.85;;
55784;SDS011;41709;52.536;5.688;2023-04-15T07:05:22;10.10;;;7.65;;
55784;SDS011;41709;52.536;5.688;2023-04-15T07:07:49;10.93;;;8.23;;
55784;SDS011;41709;52.536;5.688;2023-04-15T07:10:15;10.63;;;7.53;;
55784;SDS011;41709;52.536;5.688;2023-04-15T07:12:41;11.60;;;7.57;;
55784;SDS011;41709;52.536;5.688;2023-04-15T07:15:06;12.82;;;7.78;;
55784;SDS011;41709;52.536;5.688;2023-04-15T07:17:32;10.20;;;6.90;;
55784;SDS011;41709;52.536;5.688;2023-04-15T07:19:58;11.20;;;7.50;;
55784;SDS011;41709;52.536;5.688;2023-04-15T07:22:23;8.27;;;6.85;;
55784;SDS011;41709;52.536;5.688;2023-04-15T07:24:50;11.88;;;6.97;;
55784;SDS011;41709;52.536;5.688;2023-04-15T07:27:15;8.95;;;6.13;;
55784;SDS011;41709;52.536;5.688;2023-04-15T07:29:41;7.85;;;5.63;;
55784;SDS011;41709;52.536;5.688;2023-04-15T07:32:07;10.32;;;5.72;;
55784;SDS011;41709;52.536;5.688;2023-04-15T07:34:34;8.38;;;5.65;;
55784;SDS011;41709;52.536;5.688;2023-04-15T07:37:00;8.63;;;6.00;;
55784;SDS011;41709;52.536;5.688;2023-04-15T07:39:26;9.15;;;6.90;;
55784;SDS011;41709;52.536;5.688;2023-04-15T07:41:51;7.80;;;5.47;;
55784;SDS011;41709;52.536;5.688;2023-04-15T07:44:17;9.02;;;6.32;;
55784;SDS011;41709;52.536;5.688;2023-04-15T07:46:42;9.75;;;5.93;;
55784;SDS011;41709;52.536;5.688;2023-04-15T07:49:08;8.48;;;6.50;;
55784;SDS011;41709;52.536;5.688;2023-04-15T07:51:33;13.07;;;7.85;;
55784;SDS011;41709;52.536;5.688;2023-04-15T07:53:59;13.95;;;8.23;;
55784;SDS011;41709;52.536;5.688;2023-04-15T07:56:24;12.43;;;8.00;;
55784;SDS011;41709;52.536;5.688;2023-04-15T07:58:50;15.40;;;8.75;;
55784;SDS011;41709;52.536;5.688;2023-04-15T08:01:16;16.58;;;10.40;;
55784;SDS011;41709;52.536;5.688;2023-04-15T08:03:41;18.30;;;10.00;;
55784;SDS011;41709;52.536;5.688;2023-04-15T08:06:07;24.13;;;11.80;;
55784;SDS011;41709;52.536;5.688;2023-04-15T08:08:33;23.98;;;11.38;;
55784;SDS011;41709;52.536;5.688;2023-04-15T08:10:58;20.80;;;10.35;;
55784;SDS011;41709;52.536;5.688;2023-04-15T08:13:24;16.75;;;9.43;;
55784;SDS011;41709;52.536;5.688;2023-04-15T08:15:52;14.43;;;7.90;;
55784;SDS011;41709;52.536;5.688;2023-04-15T08:18:46;12.10;;;7.20;;
55784;SDS011;41709;52.536;5.688;2023-04-15T08:21:13;10.45;;;6.03;;
55784;SDS011;41709;52.536;5.688;2023-04-15T08:23:39;8.90;;;4.88;;
55784;SDS011;41709;52.536;5.688;2023-04-15T08:26:04;9.00;;;5.93;;
55784;SDS011;41709;52.536;5.688;2023-04-15T08:28:30;8.43;;;5.35;;
55784;SDS011;41709;52.536;5.688;2023-04-15T08:30:56;9.00;;;5.20;;
55784;SDS011;41709;52.536;5.688;2023-04-15T08:33:21;9.93;;;5.28;;
55784;SDS011;41709;52.536;5.688;2023-04-15T08:35:47;6.30;;;4.32;;
55784;SDS011;41709;52.536;5.688;2023-04-15T08:38:13;6.90;;;4.43;;
55784;SDS011;41709;52.536;5.688;2023-04-15T08:40:42;7.35;;;4.28;;
55784;SDS011;41709;52.536;5.688;2023-04-15T08:43:10;5.78;;;4.05;;
55784;SDS011;41709;52.536;5.688;2023-04-15T08:45:39;5.60;;;4.07;;
55784;SDS011;41709;52.536;5.688;2023-04-15T08:48:06;4.38;;;3.17;;
55784;SDS011;41709;52.536;5.688;2023-04-15T08:50:33;5.22;;;3.95;;
55784;SDS011;41709;52.536;5.688;2023-04-15T08:52:59;5.82;;;4.10;;
55784;SDS011;41709;52.536;5.688;2023-04-15T08:55:29;5.20;;;3.70;;
55784;SDS011;41709;52.536;5.688;2023-04-15T08:57:58;4.05;;;3.17;;
55784;SDS011;41709;52.536;5.688;2023-04-15T09:00:25;5.85;;;3.00;;
55784;SDS011;41709;52.536;5.688;2023-04-15T09:02:51;6.15;;;3.53;;
55784;SDS011;41709;52.536;5.688;2023-04-15T09:05:17;4.43;;;3.00;;
55784;SDS011;41709;52.536;5.688;2023-04-15T09:07:45;9.30;;;3.90;;
55784;SDS011;41709;52.536;5.688;2023-04-15T09:10:11;4.50;;;3.38;;
55784;SDS011;41709;52.536;5.688;2023-04-15T09:12:37;7.03;;;3.30;;
55784;SDS011;41709;52.536;5.688;2023-04-15T09:15:02;4.95;;;3.70;;
55784;SDS011;41709;52.536;5.688;2023-04-15T09:17:29;5.50;;;3.65;;
55784;SDS011;41709;52.536;5.688;2023-04-15T09:20:07;5.50;;;3.67;;
55784;SDS011;41709;52.536;5.688;2023-04-15T09:22:33;5.78;;;3.90;;
55784;SDS011;41709;52.536;5.688;2023-04-15T09:24:58;5.85;;;3.67;;
55784;SDS011;41709;52.536;5.688;2023-04-15T09:27:24;6.00;;;3.78;;
55784;SDS011;41709;52.536;5.688;2023-04-15T09:29:50;3.70;;;3.28;;
55784;SDS011;41709;52.536;5.688;2023-04-15T09:32:17;3.97;;;3.38;;
55784;SDS011;41709;52.536;5.688;2023-04-15T09:34:45;4.47;;;3.25;;
55784;SDS011;41709;52.536;5.688;2023-04-15T09:37:10;6.60;;;3.47;;
55784;SDS011;41709;52.536;5.688;2023-04-15T09:39:44;4.72;;;3.65;;
55784;SDS011;41709;52.536;5.688;2023-04-15T09:42:14;6.93;;;3.33;;
55784;SDS011;41709;52.536;5.688;2023-04-15T09:44:40;4.95;;;3.10;;
55784;SDS011;41709;52.536;5.688;2023-04-15T09:47:06;6.15;;;3.30;;
55784;SDS011;41709;52.536;5.688;2023-04-15T09:49:32;3.50;;;3.00;;
55784;SDS011;41709;52.536;5.688;2023-04-15T09:52:01;6.60;;;3.50;;
55784;SDS011;41709;52.536;5.688;2023-04-15T09:54:37;3.42;;;2.40;;
55784;SDS011;41709;52.536;5.688;2023-04-15T09:57:06;5.68;;;2.78;;
55784;SDS011;41709;52.536;5.688;2023-04-15T09:59:33;3.78;;;2.70;;
55784;SDS011;41709;52.536;5.688;2023-04-15T10:01:59;3.67;;;2.50;;
55784;SDS011;41709;52.536;5.688;2023-04-15T10:04:28;3.22;;;2.50;;
55784;SDS011;41709;52.536;5.688;2023-04-15T10:06:54;3.10;;;2.35;;
55784;SDS011;41709;52.536;5.688;2023-04-15T10:09:20;3.40;;;2.83;;
55784;SDS011;41709;52.536;5.688;2023-04-15T10:11:46;4.28;;;2.92;;
55784;SDS011;41709;52.536;5.688;2023-04-15T10:14:14;3.95;;;2.95;;
55784;SDS011;41709;52.536;5.688;2023-04-15T10:16:40;4.07;;;2.85;;
55784;SDS011;41709;52.536;5.688;2023-04-15T10:19:09;3.90;;;2.25;;
55784;SDS011;41709;52.536;5.688;2023-04-15T10:21:36;4.90;;;2.22;;
55784;SDS011;41709;52.536;5.688;2023-04-15T10:24:02;2.30;;;1.92;;
55784;SDS011;41709;52.536;5.688;2023-04-15T10:26:27;4.75;;;2.95;;
55784;SDS011;41709;52.536;5.688;2023-04-15T10:28:53;4.40;;;2.53;;
55784;SDS011;41709;52.536;5.688;2023-04-15T10:31:20;3.90;;;2.63;;
55784;SDS011;41709;52.536;5.688;2023-04-15T10:33:46;2.42;;;2.08;;
55784;SDS011;41709;52.536;5.688;2023-04-15T10:36:13;4.90;;;2.83;;
55784;SDS011;41709;52.536;5.688;2023-04-15T10:38:40;3.50;;;2.85;;
55784;SDS011;41709;52.536;5.688;2023-04-15T10:41:20;3.85;;;2.47;;
55784;SDS011;41709;52.536;5.688;2023-04-15T10:43:52;5.30;;;2.50;;
55784;SDS011;41709;52.536;5.688;2023-04-15T10:46:35;5.03;;;3.20;;
55784;SDS011;41709;52.536;5.688;2023-04-15T10:49:12;4.18;;;2.80;;
55784;SDS011;41709;52.536;5.688;2023-04-15T10:51:39;4.20;;;1.92;;
55784;SDS011;41709;52.536;5.688;2023-04-15T10:54:16;2.97;;;1.90;;
55784;SDS011;41709;52.536;5.688;2023-04-15T10:59:30;4.20;;;2.28;;
55784;SDS011;41709;52.536;5.688;2023-04-15T11:01:59;6.65;;;2.38;;
55784;SDS011;41709;52.536;5.688;2023-04-15T11:12:37;2.85;;;1.88;;
55784;SDS011;41709;52.536;5.688;2023-04-15T11:20:45;3.60;;;1.70;;
55784;SDS011;41709;52.536;5.688;2023-04-15T11:23:38;3.22;;;1.50;;
55784;SDS011;41709;52.536;5.688;2023-04-15T11:26:07;2.10;;;1.80;;
55784;SDS011;41709;52.536;5.688;2023-04-15T11:28:35;4.50;;;1.60;;
55784;SDS011;41709;52.536;5.688;2023-04-15T11:31:05;2.05;;;1.40;;
55784;SDS011;41709;52.536;5.688;2023-04-15T11:33:32;1.38;;;0.98;;
55784;SDS011;41709;52.536;5.688;2023-04-15T11:35:58;3.10;;;1.75;;
55784;SDS011;41709;52.536;5.688;2023-04-15T11:38:23;3.75;;;1.48;;
55784;SDS011;41709;52.536;5.688;2023-04-15T11:40:49;1.33;;;0.85;;
55784;SDS011;41709;52.536;5.688;2023-04-15T11:43:17;2.47;;;1.08;;
55784;SDS011;41709;52.536;5.688;2023-04-15T11:48:18;2.45;;;1.00;;
55784;SDS011;41709;52.536;5.688;2023-04-15T11:50:45;1.70;;;0.77;;
55784;SDS011;41709;52.536;5.688;2023-04-15T11:53:16;1.35;;;0.68;;
55784;SDS011;41709;52.536;5.688;2023-04-15T11:55:46;4.35;;;0.90;;
55784;SDS011;41709;52.536;5.688;2023-04-15T11:58:17;1.20;;;0.88;;
55784;SDS011;41709;52.536;5.688;2023-04-15T12:00:54;2.78;;;1.17;;
55784;SDS011;41709;52.536;5.688;2023-04-15T12:03:29;1.98;;;0.55;;
55784;SDS011;41709;52.536;5.688;2023-04-15T12:06:03;3.25;;;0.80;;
55784;SDS011;41709;52.536;5.688;2023-04-15T12:13:58;3.13;;;0.73;;
55784;SDS011;41709;52.536;5.688;2023-04-15T12:16:29;0.98;;;0.70;;
55784;SDS011;41709;52.536;5.688;2023-04-15T12:18:56;0.93;;;0.60;;
55784;SDS011;41709;52.536;5.688;2023-04-15T12:21:23;1.20;;;0.70;;
55784;SDS011;41709;52.536;5.688;2023-04-15T12:26:16;2.05;;;0.80;;
55784;SDS011;41709;52.536;5.688;2023-04-15T12:28:49;2.08;;;0.82;;
55784;SDS011;41709;52.536;5.688;2023-04-15T12:31:19;1.95;;;0.90;;
55784;SDS011;41709;52.536;5.688;2023-04-15T12:33:46;1.38;;;1.00;;
55784;SDS011;41709;52.536;5.688;2023-04-15T12:36:13;3.15;;;1.05;;
55784;SDS011;41709;52.536;5.688;2023-04-15T12:38:39;1.70;;;1.05;;
55784;SDS011;41709;52.536;5.688;2023-04-15T12:41:04;4.10;;;0.90;;
55784;SDS011;41709;52.536;5.688;2023-04-15T12:43:30;2.75;;;0.98;;
55784;SDS011;41709;52.536;5.688;2023-04-15T12:45:55;1.20;;;0.80;;
55784;SDS011;41709;52.536;5.688;2023-04-15T12:48:21;3.97;;;1.02;;
55784;SDS011;41709;52.536;5.688;2023-04-15T12:50:47;3.22;;;0.85;;
55784;SDS011;41709;52.536;5.688;2023-04-15T12:53:12;1.10;;;0.60;;
55784;SDS011;41709;52.536;5.688;2023-04-15T12:55:38;2.13;;;0.70;;
55784;SDS011;41709;52.536;5.688;2023-04-15T12:58:03;1.73;;;0.88;;
55784;SDS011;41709;52.536;5.688;2023-04-15T13:00:29;2.90;;;1.20;;
55784;SDS011;41709;52.536;5.688;2023-04-15T13:02:54;2.42;;;0.77;;
55784;SDS011;41709;52.536;5.688;2023-04-15T13:05:20;2.95;;;1.27;;
55784;SDS011;41709;52.536;5.688;2023-04-15T13:07:45;4.68;;;1.40;;
55784;SDS011;41709;52.536;5.688;2023-04-15T13:10:11;4.88;;;2.55;;
55784;SDS011;41709;52.536;5.688;2023-04-15T13:12:36;5.65;;;1.50;;
55784;SDS011;41709;52.536;5.688;2023-04-15T13:15:02;2.58;;;1.20;;
55784;SDS011;41709;52.536;5.688;2023-04-15T13:17:28;3.53;;;1.20;;
55784;SDS011;41709;52.536;5.688;2023-04-15T13:19:54;6.78;;;2.15;;
55784;SDS011;41709;52.536;5.688;2023-04-15T13:22:20;3.33;;;0.93;;
55784;SDS011;41709;52.536;5.688;2023-04-15T13:24:45;3.08;;;0.95;;
55784;SDS011;41709;52.536;5.688;2023-04-15T13:27:11;6.93;;;1.10;;
55784;SDS011;41709;52.536;5.688;2023-04-15T13:29:36;2.60;;;0.90;;
55784;SDS011;41709;52.536;5.688;2023-04-15T13:32:04;2.03;;;0.90;;
55784;SDS011;41709;52.536;5.688;2023-04-15T13:34:30;2.30;;;1.00;;
55784;SDS011;41709;52.536;5.688;2023-04-15T13:36:56;4.82;;;0.90;;
55784;SDS011;41709;52.536;5.688;2023-04-15T13:39:21;3.33;;;1.10;;
55784;SDS011;41709;52.536;5.688;2023-04-15T13:41:47;6.47;;;1.80;;
55784;SDS011;41709;52.536;5.688;2023-04-15T13:44:12;3.00;;;1.25;;
55784;SDS011;41709;52.536;5.688;2023-04-15T13:46:38;4.45;;;1.20;;
55784;SDS011;41709;52.536;5.688;2023-04-15T13:49:06;4.75;;;1.20;;
55784;SDS011;41709;52.536;5.688;2023-04-15T13:51:32;5.65;;;1.05;;
55784;SDS011;41709;52.536;5.688;2023-04-15T13:53:59;7.88;;;1.10;;
55784;SDS011;41709;52.536;5.688;2023-04-15T13:56:25;4.78;;;1.20;;
55784;SDS011;41709;52.536;5.688;2023-04-15T13:58:51;12.98;;;2.38;;
55784;SDS011;41709;52.536;5.688;2023-04-15T14:01:16;8.52;;;1.10;;
55784;SDS011;41709;52.536;5.688;2023-04-15T14:03:42;9.60;;;3.03;;
55784;SDS011;41709;52.536;5.688;2023-04-15T14:06:08;5.70;;;1.15;;
55784;SDS011;41709;52.536;5.688;2023-04-15T14:08:33;5.63;;;0.90;;
55784;SDS011;41709;52.536;5.688;2023-04-15T14:10:59;5.35;;;0.80;;
55784;SDS011;41709;52.536;5.688;2023-04-15T14:13:24;5.35;;;0.88;;
55784;SDS011;41709;52.536;5.688;2023-04-15T14:15:50;4.07;;;0.98;;
55784;SDS011;41709;52.536;5.688;2023-04-15T14:18:15;2.97;;;0.82;;
55784;SDS011;41709;52.536;5.688;2023-04-15T14:20:41;4.47;;;0.93;;
55784;SDS011;41709;52.536;5.688;2023-04-15T14:23:06;6.68;;;1.23;;
55784;SDS011;41709;52.536;5.688;2023-04-15T14:25:32;11.50;;;1.30;;
55784;SDS011;41709;52.536;5.688;2023-04-15T14:27:57;8.40;;;0.93;;
55784;SDS011;41709;52.536;5.688;2023-04-15T14:30:23;4.38;;;0.90;;
55784;SDS011;41709;52.536;5.688;2023-04-15T14:32:49;4.93;;;1.35;;
55784;SDS011;41709;52.536;5.688;2023-04-15T14:35:14;6.35;;;0.80;;
55784;SDS011;41709;52.536;5.688;2023-04-15T14:37:40;3.22;;;0.90;;
55784;SDS011;41709;52.536;5.688;2023-04-15T14:40:06;5.63;;;0.88;;
55784;SDS011;41709;52.536;5.688;2023-04-15T14:42:32;6.45;;;1.45;;
55784;SDS011;41709;52.536;5.688;2023-04-15T14:44:57;5.78;;;1.27;;
55784;SDS011;41709;52.536;5.688;2023-04-15T14:47:23;8.18;;;0.95;;
55784;SDS011;41709;52.536;5.688;2023-04-15T14:49:48;5.85;;;0.93;;
55784;SDS011;41709;52.536;5.688;2023-04-15T14:52:14;4.25;;;0.88;;
55784;SDS011;41709;52.536;5.688;2023-04-15T14:54:40;7.50;;;0.90;;
55784;SDS011;41709;52.536;5.688;2023-04-15T14:57:06;5.57;;;1.00;;
55784;SDS011;41709;52.536;5.688;2023-04-15T14:59:32;6.38;;;0.98;;
55784;SDS011;41709;52.536;5.688;2023-04-15T15:01:58;3.88;;;1.00;;
55784;SDS011;41709;52.536;5.688;2023-04-15T15:04:23;5.07;;;0.95;;
55784;SDS011;41709;52.536;5.688;2023-04-15T15:06:49;6.65;;;1.23;;